Time;durP1;ratioP1;P1;durP2;ratioP2;P2;SDS_P1;SDS_P2;PMS_P1;PMS_P2;Temp;Humidity;BMP_temperature;BMP_pressure;BME280_temperature;BME280_humidity;BME280_pressure;Samples;Min_cycle;Max_cycle;Signal;HPM_P1;HPM_P2
2023/09/18 00:01:55;;;;;;;43.33;31.00;;;15.40;85.90;;;;;;5028765;28;20512;-65
2023/09/18 00:04:21;;;;;;;45.95;29.42;;;15.30;85.80;;;;;;5026947;28;20049;-66
2023/09/18 00:06:46;;;;;;;37.10;28.38;;;15.30;85.80;;;;;;5007105;28;20045;-65
2023/09/18 00:09:13;;;;;;;77.38;31.63;;;15.30;85.70;;;;;;5046155;28;20063;-66
2023/09/18 00:11:40;;;;;;;280.25;37.95;;;15.20;85.80;;;;;;5036395;28;20124;-66
2023/09/18 00:14:07;;;;;;;684.30;54.47;;;15.30;85.80;;;;;;5047988;28;20061;-64
2023/09/18 00:16:33;;;;;;;605.38;51.63;;;15.30;85.80;;;;;;5009731;28;20443;-66
2023/09/18 00:18:58;;;;;;;505.55;50.10;;;15.30;85.90;;;;;;5026995;28;20054;-65
2023/09/18 00:21:30;;;;;;;522.53;53.55;;;15.30;86.00;;;;;;5037602;28;20050;-65
2023/09/18 00:23:57;;;;;;;622.35;54.60;;;15.30;86.10;;;;;;5047001;28;20052;-65
2023/09/18 00:26:24;;;;;;;647.45;63.45;;;15.30;86.00;;;;;;5036533;28;20047;-65
2023/09/18 00:28:50;;;;;;;466.80;55.85;;;15.30;86.30;;;;;;5028987;28;20057;-65
2023/09/18 00:31:15;;;;;;;623.50;68.15;;;15.30;86.60;;;;;;5047596;28;20155;-66
2023/09/18 00:33:41;;;;;;;696.05;65.35;;;15.30;86.80;;;;;;5044460;28;20115;-65
2023/09/18 00:36:07;;;;;;;555.45;62.60;;;15.40;86.70;;;;;;5039224;28;20048;-64
2023/09/18 00:38:32;;;;;;;451.98;51.10;;;15.40;86.50;;;;;;5044768;28;20121;-65
2023/09/18 00:40:58;;;;;;;239.98;48.97;;;15.40;86.50;;;;;;5030637;28;20112;-64
2023/09/18 00:43:24;;;;;;;228.50;46.80;;;15.40;86.40;;;;;;5027338;28;20049;-65
2023/09/18 00:45:50;;;;;;;147.90;48.42;;;15.40;86.50;;;;;;5039672;28;20052;-65
2023/09/18 00:48:16;;;;;;;83.25;46.75;;;15.40;86.40;;;;;;5033658;28;20120;-65
2023/09/18 00:50:44;;;;;;;77.15;46.08;;;15.40;86.50;;;;;;5029645;28;20623;-66
2023/09/18 00:53:13;;;;;;;89.65;48.53;;;15.40;86.50;;;;;;5043196;28;20084;-65
2023/09/18 00:55:39;;;;;;;108.18;52.25;;;15.40;86.60;;;;;;5030329;28;20049;-65
2023/09/18 00:58:06;;;;;;;78.65;48.20;;;15.40;86.80;;;;;;5036021;28;20153;-65
2023/09/18 01:00:31;;;;;;;93.20;53.00;;;15.50;87.00;;;;;;5046484;28;20041;-66
2023/09/18 01:02:57;;;;;;;87.60;50.90;;;15.50;87.10;;;;;;5045793;28;20052;-64
2023/09/18 01:05:23;;;;;;;90.38;50.85;;;15.60;87.20;;;;;;5047629;28;20080;-65
2023/09/18 01:07:48;;;;;;;94.70;51.65;;;15.60;87.30;;;;;;5037734;28;20278;-65
2023/09/18 01:10:16;;;;;;;93.75;53.22;;;15.60;87.30;;;;;;5051991;28;20049;-65
2023/09/18 01:12:59;;;;;;;82.85;48.50;;;15.60;87.30;;;;;;5033522;28;20042;-65
2023/09/18 01:15:32;;;;;;;86.72;51.28;;;15.70;87.30;;;;;;5032807;28;20060;-66
2023/09/18 01:17:59;;;;;;;92.65;52.22;;;15.70;87.30;;;;;;5040072;28;20049;-65
2023/09/18 01:20:25;;;;;;;90.25;51.70;;;15.70;87.30;;;;;;5038069;28;20381;-65
2023/09/18 01:22:51;;;;;;;90.13;52.65;;;15.60;87.30;;;;;;5042353;28;20100;-66
2023/09/18 01:25:16;;;;;;;94.05;56.03;;;15.70;87.30;;;;;;5031432;28;20381;-65
2023/09/18 01:27:42;;;;;;;102.93;59.03;;;15.70;87.30;;;;;;5019704;28;20452;-66
2023/09/18 01:30:08;;;;;;;112.43;61.17;;;15.80;87.30;;;;;;5010216;28;20591;-65
2023/09/18 01:32:36;;;;;;;101.13;62.20;;;15.80;87.30;;;;;;5044890;28;20123;-65
2023/09/18 01:35:06;;;;;;;102.75;60.60;;;15.80;87.40;;;;;;5048698;28;20510;-63
2023/09/18 01:37:34;;;;;;;114.82;64.65;;;15.80;87.50;;;;;;5033562;28;20053;-65
2023/09/18 01:40:06;;;;;;;115.72;64.93;;;15.80;87.50;;;;;;5046022;28;20049;-64
2023/09/18 01:42:32;;;;;;;;;;;15.80;87.50;;;;;;5051360;28;20045;-65
2023/09/18 01:44:57;;;;;;;109.55;57.60;;;15.80;87.60;;;;;;5051059;28;19925;-66
2023/09/18 01:47:23;;;;;;;108.82;57.42;;;15.80;87.30;;;;;;5039703;28;20445;-66
2023/09/18 01:49:49;;;;;;;119.90;61.58;;;15.80;87.20;;;;;;5049065;28;20048;-66
2023/09/18 01:52:15;;;;;;;123.68;62.72;;;15.70;87.10;;;;;;5013071;28;20407;-66
2023/09/18 01:54:41;;;;;;;118.40;61.97;;;15.70;87.20;;;;;;5030682;28;20041;-65
2023/09/18 01:57:07;;;;;;;121.03;65.10;;;15.60;87.40;;;;;;5029280;28;20503;-66
2023/09/18 01:59:34;;;;;;;114.20;61.88;;;15.60;87.50;;;;;;5049986;28;20057;-66
2023/09/18 02:02:01;;;;;;;120.47;65.97;;;15.70;87.70;;;;;;5041394;28;20058;-65
2023/09/18 02:04:27;;;;;;;107.93;60.70;;;15.70;87.70;;;;;;5046264;28;20048;-66
2023/09/18 02:06:53;;;;;;;111.90;59.80;;;15.70;87.70;;;;;;5039647;28;20049;-65
2023/09/18 02:09:18;;;;;;;108.80;63.05;;;15.70;87.60;;;;;;5050251;28;20057;-66
2023/09/18 02:11:46;;;;;;;108.28;60.28;;;15.70;87.60;;;;;;5040816;28;20099;-65
2023/09/18 02:14:12;;;;;;;117.72;64.75;;;15.80;87.70;;;;;;5032665;28;20048;-63
2023/09/18 02:16:46;;;;;;;104.70;60.88;;;15.80;87.80;;;;;;5039190;28;20549;-65
2023/09/18 02:19:17;;;;;;;102.40;62.10;;;15.80;87.70;;;;;;5044153;28;20057;-66
2023/09/18 02:21:43;;;;;;;93.70;58.88;;;15.80;87.80;;;;;;5029626;28;20049;-66
2023/09/18 02:24:08;;;;;;;102.70;60.47;;;15.80;87.80;;;;;;5048311;28;20060;-67
2023/09/18 02:26:35;;;;;;;100.28;60.10;;;15.80;87.70;;;;;;5038909;28;20076;-65
2023/09/18 02:29:04;;;;;;;97.50;60.13;;;15.90;87.80;;;;;;5049214;28;20045;-65
2023/09/18 02:31:29;;;;;;;95.53;58.75;;;15.90;87.90;;;;;;5050044;28;20056;-65
2023/09/18 02:33:56;;;;;;;95.43;58.53;;;16.00;87.80;;;;;;5049308;28;20403;-66
2023/09/18 02:36:21;;;;;;;86.53;56.92;;;16.00;87.70;;;;;;5039421;28;20166;-66
2023/09/18 02:38:47;;;;;;;85.63;55.88;;;16.00;87.70;;;;;;5049828;28;20049;-66
2023/09/18 02:41:13;;;;;;;83.32;56.95;;;16.00;87.70;;;;;;5049789;28;20103;-65
2023/09/18 02:43:39;;;;;;;84.55;57.08;;;16.00;87.70;;;;;;5049175;28;20403;-65
2023/09/18 02:46:05;;;;;;;79.10;55.75;;;16.00;87.70;;;;;;5043538;28;20781;-65
2023/09/18 02:48:32;;;;;;;83.10;55.80;;;16.10;87.60;;;;;;5045503;28;20072;-65
2023/09/18 02:50:59;;;;;;;80.10;54.28;;;16.10;87.70;;;;;;5049702;28;20049;-66
2023/09/18 02:53:25;;;;;;;82.70;54.60;;;16.10;87.70;;;;;;5036013;28;20439;-65
2023/09/18 02:55:52;;;;;;;77.10;54.20;;;16.10;87.70;;;;;;5049445;28;20102;-65
2023/09/18 02:58:19;;;;;;;70.93;51.88;;;16.20;87.70;;;;;;5038156;28;20110;-66
2023/09/18 03:00:47;;;;;;;74.85;52.67;;;16.20;87.70;;;;;;5049738;28;20424;-66
2023/09/18 03:03:13;;;;;;;68.45;51.30;;;16.20;87.80;;;;;;5049203;28;20048;-66
2023/09/18 03:05:40;;;;;;;72.28;50.78;;;16.30;87.70;;;;;;5036876;28;20037;-65
2023/09/18 03:08:07;;;;;;;58.03;45.78;;;16.30;87.70;;;;;;5024925;28;20072;-66
2023/09/18 03:10:34;;;;;;;62.63;46.85;;;16.40;87.70;;;;;;5049911;28;20127;-66
2023/09/18 03:13:01;;;;;;;60.72;47.30;;;16.40;87.70;;;;;;5029527;28;20480;-66
2023/09/18 03:15:26;;;;;;;60.05;47.17;;;16.40;87.60;;;;;;5029521;28;20516;-66
2023/09/18 03:17:52;;;;;;;59.60;45.75;;;16.40;87.60;;;;;;5018606;28;20064;-67
2023/09/18 03:20:18;;;;;;;62.33;48.22;;;16.40;87.60;;;;;;5042459;28;20049;-66
2023/09/18 03:22:43;;;;;;;59.78;47.40;;;16.50;87.50;;;;;;5048545;28;20055;-66
2023/09/18 03:25:10;;;;;;;56.20;46.25;;;16.50;87.50;;;;;;5048566;28;20040;-66
2023/09/18 03:27:35;;;;;;;52.58;44.00;;;16.50;87.50;;;;;;5019704;28;20051;-65
2023/09/18 03:30:01;;;;;;;55.30;44.75;;;16.50;87.40;;;;;;5049649;28;20041;-65
2023/09/18 03:32:27;;;;;;;55.97;44.47;;;16.50;87.40;;;;;;5047842;28;20055;-64
2023/09/18 03:34:53;;;;;;;56.08;43.95;;;16.60;87.40;;;;;;5046326;28;20131;-67
2023/09/18 03:37:19;;;;;;;54.25;43.60;;;16.60;87.30;;;;;;5036966;28;20059;-66
2023/09/18 03:39:45;;;;;;;54.67;44.80;;;16.60;87.30;;;;;;5049279;28;20399;-66
2023/09/18 03:42:10;;;;;;;52.70;44.80;;;16.60;87.20;;;;;;5048484;28;20041;-67
2023/09/18 03:44:37;;;;;;;60.47;44.83;;;16.60;87.20;;;;;;5049164;28;20122;-67
2023/09/18 03:47:03;;;;;;;57.17;43.70;;;16.60;87.20;;;;;;5037956;28;20073;-67
2023/09/18 03:49:29;;;;;;;55.03;41.30;;;16.60;87.10;;;;;;5049086;28;20411;-66
2023/09/18 03:51:55;;;;;;;49.45;40.30;;;16.60;87.10;;;;;;5048648;28;20056;-67
2023/09/18 03:54:20;;;;;;;55.78;42.88;;;16.60;87.00;;;;;;5047954;28;20052;-66
2023/09/18 03:56:46;;;;;;;50.35;40.03;;;16.60;87.00;;;;;;5037486;28;20491;-66
2023/09/18 03:59:13;;;;;;;49.30;40.22;;;16.60;87.00;;;;;;5047985;28;20045;-67
2023/09/18 04:01:39;;;;;;;47.47;38.47;;;16.60;87.00;;;;;;5048458;28;20129;-66
2023/09/18 04:04:05;;;;;;;45.95;39.03;;;16.60;86.90;;;;;;5048571;28;20128;-65
2023/09/18 04:06:41;;;;;;;47.58;37.67;;;16.60;86.90;;;;;;5037152;28;20075;-65
2023/09/18 04:09:07;;;;;;;44.80;35.20;;;16.60;86.90;;;;;;5048105;28;20052;-66
2023/09/18 04:11:33;;;;;;;41.65;37.10;;;16.60;86.90;;;;;;5040119;28;20038;-65
2023/09/18 04:14:05;;;;;;;43.50;35.28;;;16.60;86.90;;;;;;5042326;28;20064;-66
2023/09/18 04:16:31;;;;;;;45.58;36.20;;;16.60;86.90;;;;;;5019437;28;20098;-66
2023/09/18 04:18:57;;;;;;;42.28;35.80;;;16.60;86.90;;;;;;5044140;28;20139;-67
2023/09/18 04:21:23;;;;;;;37.55;33.38;;;16.70;87.00;;;;;;5041310;28;20047;-66
2023/09/18 04:23:55;;;;;;;43.70;34.05;;;16.70;87.00;;;;;;5038490;28;20132;-66
2023/09/18 04:26:22;;;;;;;36.72;32.53;;;16.70;87.00;;;;;;5022380;28;20108;-67
2023/09/18 04:28:48;;;;;;;42.35;33.75;;;16.70;86.90;;;;;;5032248;28;20049;-67
2023/09/18 04:31:13;;;;;;;42.85;34.20;;;16.80;86.90;;;;;;5040615;28;20408;-67
2023/09/18 04:33:39;;;;;;;41.22;34.20;;;16.80;86.80;;;;;;5038510;28;20140;-68
2023/09/18 04:36:05;;;;;;;42.15;34.63;;;16.80;86.80;;;;;;5041874;28;20057;-66
2023/09/18 04:38:31;;;;;;;39.00;32.50;;;16.80;86.70;;;;;;5024495;28;20036;-66
2023/09/18 04:41:00;;;;;;;38.55;31.33;;;16.80;86.70;;;;;;5048062;28;20102;-64
2023/09/18 04:43:26;;;;;;;39.90;30.70;;;16.80;86.70;;;;;;5047538;28;20053;-67
2023/09/18 04:45:52;;;;;;;37.88;32.42;;;16.80;86.70;;;;;;5043615;28;20056;-66
2023/09/18 04:48:17;;;;;;;40.03;31.52;;;16.80;86.70;;;;;;5029323;28;20152;-67
2023/09/18 04:50:43;;;;;;;41.20;29.73;;;16.90;86.70;;;;;;5042188;28;20077;-67
2023/09/18 04:53:09;;;;;;;36.55;29.25;;;16.90;86.60;;;;;;5034848;28;20045;-67
2023/09/18 04:55:35;;;;;;;36.83;28.85;;;16.90;86.70;;;;;;5035596;28;20476;-66
2023/09/18 04:58:01;;;;;;;35.00;29.48;;;16.90;86.70;;;;;;5022465;28;20098;-66
2023/09/18 05:00:28;;;;;;;38.83;31.05;;;16.90;86.60;;;;;;5044552;28;20573;-67
2023/09/18 05:02:54;;;;;;;40.00;29.73;;;16.90;86.60;;;;;;5042560;28;20060;-66
2023/09/18 05:05:20;;;;;;;33.10;29.58;;;17.00;86.60;;;;;;5034911;28;20099;-66
2023/09/18 05:07:45;;;;;;;33.85;29.20;;;17.00;86.50;;;;;;5022748;28;20049;-66
2023/09/18 05:10:11;;;;;;;37.22;30.60;;;16.90;86.50;;;;;;5043845;28;20053;-67
2023/09/18 05:12:40;;;;;;;38.75;29.42;;;16.90;86.50;;;;;;5043178;28;20129;-66
2023/09/18 05:15:07;;;;;;;38.33;30.15;;;16.90;86.40;;;;;;5034406;28;20056;-66
2023/09/18 05:17:42;;;;;;;36.05;29.38;;;16.90;86.40;;;;;;5028507;28;20041;-67
2023/09/18 05:20:11;;;;;;;34.97;29.92;;;16.90;86.40;;;;;;5028762;28;20053;-66
2023/09/18 05:22:37;;;;;;;39.97;29.25;;;16.90;86.50;;;;;;5042599;28;20045;-65
2023/09/18 05:25:04;;;;;;;31.95;28.52;;;16.90;86.50;;;;;;5045521;28;20103;-67
2023/09/18 05:27:30;;;;;;;33.55;29.33;;;16.90;86.50;;;;;;5034913;28;20063;-67
2023/09/18 05:29:55;;;;;;;33.58;27.35;;;17.00;86.50;;;;;;5030825;28;20503;-66
2023/09/18 05:32:21;;;;;;;36.35;27.65;;;17.00;86.50;;;;;;5037007;28;20110;-66
2023/09/18 05:34:46;;;;;;;34.85;28.05;;;17.00;86.60;;;;;;5030072;28;20132;-64
2023/09/18 05:37:13;;;;;;;36.80;28.27;;;17.00;86.50;;;;;;5031873;28;20059;-65
2023/09/18 05:39:38;;;;;;;34.65;28.30;;;17.00;86.50;;;;;;5036749;28;20124;-65
2023/09/18 05:42:04;;;;;;;35.20;27.95;;;17.00;86.40;;;;;;5046567;28;20120;-66
2023/09/18 05:44:30;;;;;;;36.88;28.50;;;17.00;86.50;;;;;;5046355;28;20040;-65
2023/09/18 05:46:56;;;;;;;34.55;27.63;;;17.00;86.70;;;;;;5036498;28;20053;-68
2023/09/18 05:49:22;;;;;;;37.53;28.13;;;17.00;86.80;;;;;;5045028;28;20041;-66
2023/09/18 05:51:48;;;;;;;35.90;27.27;;;17.00;86.80;;;;;;5046196;28;20055;-67
2023/09/18 05:54:14;;;;;;;35.00;27.98;;;17.00;86.90;;;;;;5046454;28;20056;-67
2023/09/18 05:56:40;;;;;;;29.95;25.92;;;17.00;86.80;;;;;;5037043;28;20040;-68
2023/09/18 05:59:05;;;;;;;28.10;25.10;;;17.00;86.80;;;;;;5039177;28;20049;-65
2023/09/18 06:01:32;;;;;;;32.35;26.58;;;17.10;86.80;;;;;;5049429;28;20080;-66
2023/09/18 06:03:58;;;;;;;40.78;25.77;;;17.10;86.80;;;;;;5047605;28;20044;-65
2023/09/18 06:06:25;;;;;;;29.63;24.35;;;17.10;86.80;;;;;;5038876;28;20500;-66
2023/09/18 06:08:53;;;;;;;30.75;23.98;;;17.20;86.70;;;;;;5048549;28;20056;-68
2023/09/18 06:11:19;;;;;;;24.55;21.88;;;17.20;86.60;;;;;;5040543;28;20079;-66
2023/09/18 06:13:45;;;;;;;26.52;23.02;;;17.20;86.40;;;;;;5031057;28;20089;-66
2023/09/18 06:16:11;;;;;;;24.85;22.08;;;17.20;86.40;;;;;;5020243;28;20096;-67
2023/09/18 06:18:38;;;;;;;26.80;23.63;;;17.20;86.20;;;;;;5027780;28;20045;-66
2023/09/18 06:21:05;;;;;;;29.00;22.88;;;17.20;86.20;;;;;;5031681;28;20388;-66
2023/09/18 06:23:31;;;;;;;31.40;24.48;;;17.20;86.20;;;;;;5048492;28;20129;-66
2023/09/18 06:25:59;;;;;;;33.83;22.83;;;17.20;86.20;;;;;;5048768;28;20032;-65
2023/09/18 06:28:24;;;;;;;27.75;23.45;;;17.20;86.20;;;;;;5019031;28;20466;-66
2023/09/18 06:30:51;;;;;;;26.50;21.25;;;17.20;86.20;;;;;;5048415;28;20049;-66
2023/09/18 06:33:16;;;;;;;28.65;21.83;;;17.30;86.20;;;;;;5047423;28;20053;-67
2023/09/18 06:35:42;;;;;;;25.27;19.90;;;17.30;86.20;;;;;;5031474;28;20037;-67
2023/09/18 06:38:10;;;;;;;26.55;20.55;;;17.30;86.20;;;;;;5038333;28;20069;-66
2023/09/18 06:40:35;;;;;;;27.33;19.63;;;17.30;86.30;;;;;;5049238;28;20051;-67
2023/09/18 06:43:02;;;;;;;21.70;18.80;;;17.40;86.30;;;;;;5048401;28;20044;-65
2023/09/18 06:45:28;;;;;;;24.05;19.70;;;17.40;86.30;;;;;;5031053;28;20084;-66
2023/09/18 06:47:53;;;;;;;22.88;18.10;;;17.40;86.20;;;;;;5034335;28;20049;-68
2023/09/18 06:50:19;;;;;;;23.13;19.08;;;17.50;86.20;;;;;;5045432;28;20094;-66
2023/09/18 06:52:46;;;;;;;25.13;18.25;;;17.50;86.20;;;;;;5048497;28;20319;-67
2023/09/18 06:55:12;;;;;;;23.33;18.88;;;17.50;86.20;;;;;;5036661;28;20129;-66
2023/09/18 06:57:38;;;;;;;26.83;18.40;;;17.50;86.30;;;;;;5027760;28;20133;-66
2023/09/18 07:00:05;;;;;;;24.20;18.70;;;17.50;86.30;;;;;;5031947;28;20515;-67
2023/09/18 07:02:31;;;;;;;22.55;18.70;;;17.50;86.50;;;;;;5024344;28;20067;-64
2023/09/18 07:04:56;;;;;;;26.95;19.23;;;17.60;86.60;;;;;;5032890;28;20056;-67
2023/09/18 07:07:25;;;;;;;23.88;19.55;;;17.60;86.50;;;;;;5020877;28;20075;-64
2023/09/18 07:09:51;;;;;;;28.83;19.92;;;17.70;86.60;;;;;;5028744;28;20080;-66
2023/09/18 07:12:19;;;;;;;28.60;20.30;;;17.80;86.50;;;;;;5030015;28;20041;-67
2023/09/18 07:14:45;;;;;;;26.20;21.83;;;17.80;86.50;;;;;;5031549;28;20507;-67
2023/09/18 07:17:11;;;;;;;25.55;20.38;;;17.80;86.50;;;;;;5018144;28;21689;-66
2023/09/18 07:19:37;;;;;;;28.90;21.23;;;17.80;86.40;;;;;;5029568;28;20068;-67
2023/09/18 07:22:03;;;;;;;29.92;21.73;;;17.80;86.40;;;;;;5029424;28;20068;-66
2023/09/18 07:24:28;;;;;;;31.73;22.23;;;17.90;86.50;;;;;;5030049;28;20059;-66
2023/09/18 07:26:54;;;;;;;26.60;20.98;;;17.90;86.40;;;;;;5017553;28;20481;-65
2023/09/18 07:29:20;;;;;;;26.73;21.73;;;18.00;86.40;;;;;;5028859;28;20056;-67
2023/09/18 07:31:46;;;;;;;28.42;21.33;;;18.00;86.50;;;;;;5029777;28;20057;-69
2023/09/18 07:34:13;;;;;;;31.67;21.15;;;18.00;86.40;;;;;;5029151;28;20056;-67
2023/09/18 07:36:39;;;;;;;26.25;19.92;;;18.00;86.50;;;;;;5020946;28;20075;-68
2023/09/18 07:39:05;;;;;;;25.40;18.75;;;18.00;86.30;;;;;;5027930;28;20056;-64
2023/09/18 07:41:32;;;;;;;29.05;20.42;;;18.00;86.20;;;;;;5030968;28;20545;-64
2023/09/18 07:43:59;;;;;;;26.83;19.33;;;18.10;86.20;;;;;;5029920;28;20060;-65
2023/09/18 07:46:24;;;;;;;30.52;20.42;;;18.10;86.20;;;;;;5019259;28;20571;-66
2023/09/18 07:48:50;;;;;;;28.33;21.35;;;18.10;86.20;;;;;;5029062;28;20091;-66
2023/09/18 07:51:16;;;;;;;34.72;22.10;;;18.10;86.20;;;;;;5029502;28;20052;-64
2023/09/18 07:53:42;;;;;;;37.22;24.23;;;18.10;86.20;;;;;;5027536;28;20134;-66
2023/09/18 07:56:08;;;;;;;35.10;24.58;;;18.10;86.20;;;;;;5019111;28;20186;-62
2023/09/18 07:58:38;;;;;;;42.83;27.35;;;18.00;86.30;;;;;;5026233;28;20504;-63
2023/09/18 08:01:05;;;;;;;43.00;28.50;;;18.00;86.20;;;;;;5028383;28;20053;-65
2023/09/18 08:03:31;;;;;;;41.65;27.58;;;18.00;86.40;;;;;;5028060;28;20057;-65
2023/09/18 08:05:57;;;;;;;39.95;26.88;;;18.00;86.50;;;;;;5029119;28;20059;-66
2023/09/18 08:08:23;;;;;;;38.97;27.00;;;18.00;86.70;;;;;;5017112;28;20044;-64
2023/09/18 08:10:50;;;;;;;47.95;30.90;;;18.00;86.70;;;;;;5028840;28;20059;-66
2023/09/18 08:13:16;;;;;;;45.80;36.55;;;18.00;86.90;;;;;;5026749;28;20267;-66
2023/09/18 08:15:42;;;;;;;49.70;31.17;;;18.00;87.00;;;;;;5027773;28;20057;-64
2023/09/18 08:18:07;;;;;;;41.22;28.08;;;18.00;87.10;;;;;;5014944;28;20049;-66
2023/09/18 08:20:33;;;;;;;45.75;30.20;;;18.00;87.20;;;;;;5027782;28;20515;-64
2023/09/18 08:23:03;;;;;;;49.65;29.85;;;18.00;87.20;;;;;;5026671;28;20441;-66
2023/09/18 08:25:29;;;;;;;28.27;21.75;;;18.00;87.20;;;;;;5027949;28;20602;-65
2023/09/18 08:27:54;;;;;;;43.95;28.63;;;17.90;87.30;;;;;;5018268;28;20045;-64
2023/09/18 08:30:24;;;;;;;34.53;23.52;;;17.90;87.40;;;;;;5030753;28;20061;-64
2023/09/18 08:32:49;;;;;;;37.35;24.88;;;17.90;87.50;;;;;;5029960;28;20068;-65
2023/09/18 08:35:15;;;;;;;34.72;23.05;;;17.90;87.50;;;;;;5030167;28;20047;-65
2023/09/18 08:37:43;;;;;;;36.78;24.15;;;17.90;87.50;;;;;;5019355;28;20053;-65
2023/09/18 08:40:13;;;;;;;27.52;20.33;;;17.80;87.50;;;;;;5030639;28;20102;-65
2023/09/18 08:42:44;;;;;;;25.58;18.27;;;17.80;87.50;;;;;;5029159;28;20049;-66
2023/09/18 08:45:14;;;;;;;;;;;17.90;87.70;;;;;;5031011;28;20061;-66
2023/09/18 08:47:40;;;;;;;29.42;21.27;;;17.90;88.00;;;;;;5019325;28;19928;-65
2023/09/18 08:50:10;;;;;;;33.53;22.17;;;17.90;87.90;;;;;;5008840;28;20060;-65
2023/09/18 08:52:36;;;;;;;31.20;22.60;;;18.00;87.90;;;;;;5027445;28;20138;-66
2023/09/18 08:55:04;;;;;;;37.92;24.63;;;18.00;88.10;;;;;;5009505;28;20488;-65
2023/09/18 08:57:30;;;;;;;33.97;22.08;;;18.00;88.10;;;;;;5018689;28;20642;-65
2023/09/18 08:59:58;;;;;;;33.70;23.00;;;18.00;88.20;;;;;;5028687;28;20414;-66
2023/09/18 09:02:23;;;;;;;29.05;21.15;;;18.10;88.30;;;;;;5028297;28;20126;-65
2023/09/18 09:04:50;;;;;;;31.85;23.52;;;18.00;88.30;;;;;;5028545;28;20388;-67
2023/09/18 09:07:16;;;;;;;34.42;23.83;;;18.10;88.30;;;;;;4987060;28;20056;-64
2023/09/18 09:09:42;;;;;;;30.48;23.05;;;18.10;88.30;;;;;;4993414;28;20525;-67
2023/09/18 09:12:08;;;;;;;33.55;25.33;;;18.10;88.40;;;;;;5026753;28;20052;-67
2023/09/18 09:14:34;;;;;;;29.88;23.25;;;18.20;88.40;;;;;;5009928;28;20495;-65
2023/09/18 09:16:59;;;;;;;33.97;23.80;;;18.20;88.50;;;;;;5015831;28;20401;-66
2023/09/18 09:19:31;;;;;;;36.75;25.33;;;18.20;88.50;;;;;;5026101;28;20081;-64
2023/09/18 09:21:58;;;;;;;39.53;26.60;;;18.20;88.50;;;;;;5027512;28;20049;-65
2023/09/18 09:24:43;;;;;;;31.30;25.00;;;18.20;88.60;;;;;;5024038;28;20067;-65
2023/09/18 09:27:10;;;;;;;28.52;22.50;;;18.30;88.60;;;;;;4995897;28;20041;-65
2023/09/18 09:29:36;;;;;;;32.85;23.92;;;18.30;88.60;;;;;;5027957;28;20056;-65
2023/09/18 09:32:16;;;;;;;33.72;25.42;;;18.30;88.60;;;;;;5028475;28;20106;-65
2023/09/18 09:34:42;;;;;;;43.38;27.33;;;18.30;88.70;;;;;;5027987;28;20057;-65
2023/09/18 09:37:08;;;;;;;33.20;24.83;;;18.40;88.70;;;;;;5017183;28;20053;-64
2023/09/18 09:39:34;;;;;;;37.20;25.08;;;18.40;88.80;;;;;;5028714;28;21050;-64
2023/09/18 09:42:03;;;;;;;32.03;23.90;;;18.50;88.80;;;;;;5029437;28;20048;-63
2023/09/18 09:44:32;;;;;;;29.40;22.85;;;18.50;88.70;;;;;;5029109;28;20512;-65
2023/09/18 09:46:59;;;;;;;35.42;25.05;;;18.50;88.60;;;;;;5018093;28;20061;-64
2023/09/18 09:49:27;;;;;;;35.13;22.83;;;18.60;88.60;;;;;;5028093;28;20140;-65
2023/09/18 09:51:54;;;;;;;28.80;21.23;;;18.60;88.60;;;;;;5029511;28;20567;-64
2023/09/18 09:54:40;;;;;;;31.00;22.70;;;18.60;88.60;;;;;;5028263;28;20582;-65
2023/09/18 09:57:06;;;;;;;26.15;21.27;;;18.70;88.60;;;;;;5016983;28;20057;-64
2023/09/18 09:59:35;;;;;;;25.98;21.17;;;18.70;88.50;;;;;;5028916;28;20601;-64
2023/09/18 10:02:02;;;;;;;25.02;21.08;;;18.70;88.40;;;;;;5011648;28;20059;-65
2023/09/18 10:04:28;;;;;;;23.90;19.98;;;18.80;88.30;;;;;;5028440;28;20146;-65
2023/09/18 10:07:07;;;;;;;28.70;22.10;;;18.80;88.40;;;;;;5017223;28;20056;-66
2023/09/18 10:09:35;;;;;;;28.80;22.42;;;18.90;88.40;;;;;;5027042;28;20060;-65
2023/09/18 10:12:04;;;;;;;29.33;22.77;;;18.90;88.20;;;;;;5028654;28;20057;-65
2023/09/18 10:14:37;;;;;;;27.85;22.15;;;19.00;88.10;;;;;;5029025;28;20045;-66
2023/09/18 10:17:14;;;;;;;25.92;22.30;;;19.00;88.10;;;;;;5016381;28;20056;-66
2023/09/18 10:19:52;;;;;;;27.40;23.38;;;19.10;88.10;;;;;;5029866;28;20037;-66
2023/09/18 10:22:28;;;;;;;25.23;22.17;;;19.20;88.10;;;;;;5028997;28;20041;-66
2023/09/18 10:25:07;;;;;;;27.77;24.48;;;19.30;87.80;;;;;;5028298;28;20569;-66
2023/09/18 10:27:33;;;;;;;28.73;24.05;;;19.40;87.80;;;;;;5017787;28;20056;-66
2023/09/18 10:30:04;;;;;;;24.73;21.10;;;19.50;87.60;;;;;;5029520;28;20433;-65
2023/09/18 10:32:32;;;;;;;26.77;22.77;;;19.50;86.90;;;;;;5029325;28;20053;-64
2023/09/18 10:35:00;;;;;;;23.80;21.20;;;19.50;86.80;;;;;;5027290;28;20057;-67
2023/09/18 10:37:28;;;;;;;24.83;22.00;;;19.50;86.40;;;;;;5017140;28;20733;-63
2023/09/18 10:39:56;;;;;;;25.98;20.52;;;19.50;86.50;;;;;;5027286;28;20436;-65
2023/09/18 10:42:23;;;;;;;22.42;20.08;;;19.50;86.40;;;;;;5026450;28;20053;-66
2023/09/18 10:44:50;;;;;;;23.00;20.70;;;19.50;86.50;;;;;;5027714;28;20053;-66
2023/09/18 10:47:17;;;;;;;20.83;18.33;;;19.50;86.30;;;;;;5017098;28;20064;-65
2023/09/18 10:49:43;;;;;;;17.92;16.13;;;19.70;85.90;;;;;;5028184;28;20053;-62
2023/09/18 10:52:13;;;;;;;15.68;13.45;;;19.70;84.80;;;;;;5028084;28;20057;-65
2023/09/18 10:54:40;;;;;;;16.05;14.27;;;19.90;84.40;;;;;;5027711;28;20049;-63
2023/09/18 10:57:06;;;;;;;16.75;14.15;;;20.00;84.80;;;;;;5015914;28;20577;-65
2023/09/18 10:59:31;;;;;;;18.17;14.38;;;20.10;84.10;;;;;;5027250;28;20057;-62
2023/09/18 11:02:05;;;;;;;14.95;13.32;;;20.30;84.20;;;;;;5026939;28;20110;-64
2023/09/18 11:04:31;;;;;;;15.77;12.32;;;20.30;83.40;;;;;;5027736;28;20128;-64
2023/09/18 11:07:04;;;;;;;14.15;12.32;;;20.30;83.00;;;;;;5017820;28;20063;-63
2023/09/18 11:09:42;;;;;;;12.18;11.02;;;20.10;82.80;;;;;;5027173;28;20065;-62
2023/09/18 11:12:09;;;;;;;13.68;11.80;;;20.20;82.70;;;;;;5004349;28;20051;-62
2023/09/18 11:15:00;;;;;;;12.63;10.90;;;20.30;83.20;;;;;;5026442;28;20531;-62
2023/09/18 11:17:29;;;;;;;12.73;11.27;;;20.40;81.90;;;;;;5013074;28;20052;-66
2023/09/18 11:20:16;;;;;;;13.68;9.80;;;20.50;82.10;;;;;;5026609;28;20045;-62
2023/09/18 11:22:57;;;;;;;13.35;8.63;;;20.50;80.40;;;;;;5015194;28;20661;-64
2023/09/18 11:25:31;;;;;;;;;;;20.60;80.80;;;;;;5028036;28;20053;-66
2023/09/18 11:27:57;;;;;;;8.88;7.45;;;20.60;79.80;;;;;;5015873;28;19935;-63
2023/09/18 11:30:23;;;;;;;9.93;6.20;;;20.80;80.40;;;;;;5026262;28;20045;-63
2023/09/18 11:32:49;;;;;;;7.78;6.35;;;20.90;79.60;;;;;;5009673;28;20126;-63
2023/09/18 11:35:18;;;;;;;8.68;5.50;;;21.00;79.10;;;;;;5026344;28;20049;-64
2023/09/18 11:37:45;;;;;;;7.68;5.40;;;21.00;78.30;;;;;;5015364;28;20045;-65
2023/09/18 11:40:38;;;;;;;9.77;6.25;;;21.00;78.00;;;;;;5026130;28;20069;-64
2023/09/18 11:43:19;;;;;;;10.18;5.25;;;21.00;77.30;;;;;;5026590;28;20430;-63
2023/09/18 11:45:50;;;;;;;7.82;4.90;;;20.90;76.60;;;;;;5027530;28;20057;-66
2023/09/18 11:48:16;;;;;;;;;;;20.80;77.40;;;;;;5017635;28;20507;-65
2023/09/18 11:50:42;;;;;;;6.72;5.20;;;20.70;77.10;;;;;;5027886;28;19928;-64
2023/09/18 11:53:09;;;;;;;6.60;4.70;;;20.70;78.20;;;;;;5026088;28;20063;-65
2023/09/18 11:55:35;;;;;;;7.18;4.85;;;20.60;77.70;;;;;;5029125;28;20562;-65
2023/09/18 11:58:04;;;;;;;6.55;4.63;;;20.50;78.00;;;;;;5016085;28;20087;-62
2023/09/18 12:00:29;;;;;;;6.53;5.32;;;20.50;78.10;;;;;;5027498;28;20084;-62
2023/09/18 12:02:55;;;;;;;6.15;5.00;;;20.50;78.50;;;;;;5028002;28;20582;-65
2023/09/18 12:05:25;;;;;;;8.13;5.18;;;20.50;78.50;;;;;;5027009;28;20052;-65
2023/09/18 12:07:51;;;;;;;7.30;4.82;;;20.50;77.80;;;;;;5012152;28;20040;-64
2023/09/18 12:10:23;;;;;;;7.95;4.97;;;20.50;77.60;;;;;;5024824;28;20432;-64
2023/09/18 12:12:49;;;;;;;6.47;4.38;;;20.40;77.90;;;;;;5025046;28;20049;-66
2023/09/18 12:15:17;;;;;;;8.02;4.30;;;20.50;77.50;;;;;;5026672;28;20080;-64
2023/09/18 12:17:43;;;;;;;10.52;4.63;;;20.50;77.30;;;;;;5016257;28;20049;-63
2023/09/18 12:20:19;;;;;;;7.60;4.80;;;20.60;77.50;;;;;;5026927;28;20059;-64
2023/09/18 12:22:48;;;;;;;7.55;5.00;;;20.60;76.90;;;;;;5025433;28;20534;-65
2023/09/18 12:25:15;;;;;;;8.00;5.63;;;20.70;77.10;;;;;;5026103;28;20065;-64
2023/09/18 12:27:44;;;;;;;8.95;4.90;;;20.80;77.50;;;;;;5014572;28;20049;-66
2023/09/18 12:30:11;;;;;;;8.63;5.28;;;20.90;76.70;;;;;;5026322;28;20466;-65